Time;durP1;ratioP1;P1;durP2;ratioP2;P2;SDS_P1;SDS_P2;PMS_P1;PMS_P2;Temp;Humidity;BMP_temperature;BMP_pressure;BME280_temperature;BME280_humidity;BME280_pressure;Samples;Min_cycle;Max_cycle;Signal;HPM_P1;HPM_P2
2023/02/16 00:01:49;;;;;;;197.93;26.65;;;;;;;;;;5033938;28;20036;-44
2023/02/16 00:04:20;;;;;;;194.48;27.23;;;;;;;;;;5035626;28;20029;-43
2023/02/16 00:06:47;;;;;;;185.98;25.05;;;;;;;;;;5032375;28;20087;-45
2023/02/16 00:09:14;;;;;;;195.70;28.73;;;;;;;;;;5035426;28;20056;-41
2023/02/16 00:14:27;;;;;;;188.27;27.35;;;;;;;;;;5046376;28;20126;-40
2023/02/16 00:16:55;;;;;;;190.63;27.13;;;;;;;;;;5032125;28;20034;-45
2023/02/16 00:19:24;;;;;;;178.60;25.05;;;;;;;;;;5036294;28;20029;-45
2023/02/16 00:21:52;;;;;;;229.80;32.33;;;;;;;;;;5031406;28;20029;-46
2023/02/16 00:24:20;;;;;;;200.63;28.92;;;;;;;;;;5042652;28;20053;-43
2023/02/16 00:26:47;;;;;;;218.77;30.75;;;;;;;;;;5041929;28;20040;-42
2023/02/16 00:29:19;;;;;;;173.48;27.05;;;;;;;;;;5045642;28;20036;-44
2023/02/16 00:31:46;;;;;;;224.10;30.77;;;;;;;;;;5034761;28;20068;-46
2023/02/16 00:34:32;;;;;;;219.75;30.75;;;;;;;;;;5033045;28;20606;-40
2023/02/16 00:37:00;;;;;;;254.15;32.30;;;;;;;;;;5032327;28;20068;-40
2023/02/16 00:39:27;;;;;;;220.32;32.55;;;;;;;;;;5041620;28;20040;-41
2023/02/16 00:41:55;;;;;;;200.30;30.02;;;;;;;;;;5037904;28;20026;-45
2023/02/16 00:44:42;;;;;;;232.10;31.50;;;;;;;;;;5033410;28;20038;-42
2023/02/16 00:47:20;;;;;;;222.65;31.33;;;;;;;;;;5045555;28;20034;-46
2023/02/16 00:49:48;;;;;;;227.40;32.80;;;;;;;;;;5033839;28;20086;-45
2023/02/16 00:52:33;;;;;;;268.73;35.72;;;;;;;;;;5046596;28;20097;-46
2023/02/16 00:55:02;;;;;;;301.35;38.90;;;;;;;;;;5043929;28;20095;-41
2023/02/16 00:57:32;;;;;;;253.73;34.80;;;;;;;;;;5046714;28;20037;-45
2023/02/16 01:00:05;;;;;;;285.63;37.03;;;;;;;;;;5051870;28;20120;-46
2023/02/16 01:02:32;;;;;;;268.42;35.30;;;;;;;;;;5052517;28;20049;-46
2023/02/16 01:04:59;;;;;;;265.75;37.33;;;;;;;;;;5053003;28;20072;-46
2023/02/16 01:12:57;;;;;;;258.23;36.08;;;;;;;;;;5052616;28;20043;-46
2023/02/16 01:15:26;;;;;;;255.20;38.05;;;;;;;;;;5042220;28;20030;-42
2023/02/16 01:17:52;;;;;;;297.35;42.63;;;;;;;;;;5036696;28;20074;-45
2023/02/16 01:20:21;;;;;;;309.92;43.50;;;;;;;;;;5037722;28;20022;-44
2023/02/16 01:22:48;;;;;;;279.02;42.60;;;;;;;;;;5048171;28;20047;-44
2023/02/16 01:25:15;;;;;;;279.85;41.38;;;;;;;;;;5043620;28;20090;-42
2023/02/16 01:27:43;;;;;;;262.70;39.78;;;;;;;;;;5048175;28;20029;-44
2023/02/16 01:30:15;;;;;;;252.77;37.67;;;;;;;;;;5047762;28;20091;-43
2023/02/16 01:32:42;;;;;;;240.30;35.28;;;;;;;;;;5052031;28;20029;-43
2023/02/16 01:35:10;;;;;;;218.57;34.28;;;;;;;;;;5051978;28;20122;-44
2023/02/16 01:37:37;;;;;;;217.98;36.42;;;;;;;;;;5051241;28;20503;-40
2023/02/16 01:40:04;;;;;;;206.95;32.70;;;;;;;;;;5050339;28;20028;-44
2023/02/16 01:42:31;;;;;;;213.90;31.98;;;;;;;;;;5051909;28;20036;-42
2023/02/16 01:44:59;;;;;;;204.57;33.30;;;;;;;;;;5048433;28;20114;-45
2023/02/16 01:47:26;;;;;;;209.45;34.20;;;;;;;;;;5050479;28;20029;-46
2023/02/16 01:49:53;;;;;;;228.13;39.15;;;;;;;;;;5033351;28;20033;-45
2023/02/16 01:52:41;;;;;;;257.60;39.33;;;;;;;;;;5031271;28;20076;-43
2023/02/16 01:55:22;;;;;;;232.20;37.00;;;;;;;;;;5046103;28;20035;-46
2023/02/16 01:57:55;;;;;;;214.13;34.65;;;;;;;;;;5051332;28;20033;-45
2023/02/16 02:00:27;;;;;;;196.77;34.50;;;;;;;;;;5051543;28;20024;-41
2023/02/16 02:05:33;;;;;;;191.38;30.67;;;;;;;;;;5049631;28;20491;-44
2023/02/16 02:05:42;;;;;;;195.27;31.75;;;;;;;;;;5045637;28;20025;-41
2023/02/16 02:08:12;;;;;;;176.48;30.20;;;;;;;;;;5038268;28;20036;-42
2023/02/16 02:10:45;;;;;;;158.43;26.95;;;;;;;;;;5039428;28;20033;-43
2023/02/16 02:13:12;;;;;;;165.15;26.48;;;;;;;;;;5022647;28;20064;-42
2023/02/16 02:15:39;;;;;;;146.98;27.38;;;;;;;;;;5039118;28;20029;-41
2023/02/16 02:18:06;;;;;;;135.80;25.30;;;;;;;;;;5041704;28;20418;-40
2023/02/16 02:23:39;;;;;;;121.25;22.30;;;;;;;;;;5043190;28;20044;-46
2023/02/16 02:26:17;;;;;;;117.88;22.52;;;;;;;;;;5043177;28;20483;-46
2023/02/16 02:28:51;;;;;;;106.03;19.30;;;;;;;;;;5041869;28;20159;-42
2023/02/16 02:31:30;;;;;;;103.90;17.83;;;;;;;;;;5046957;28;20219;-43
2023/02/16 02:34:15;;;;;;;105.90;19.83;;;;;;;;;;5040732;28;20033;-39
2023/02/16 02:36:47;;;;;;;126.80;21.55;;;;;;;;;;5048935;28;20029;-42
2023/02/16 02:39:17;;;;;;;106.78;18.15;;;;;;;;;;5049467;28;20037;-42
2023/02/16 02:42:04;;;;;;;129.30;21.08;;;;;;;;;;5049433;28;20028;-43
2023/02/16 02:44:33;;;;;;;117.85;19.73;;;;;;;;;;5045690;28;20032;-41
2023/02/16 02:47:02;;;;;;;102.80;19.83;;;;;;;;;;5037054;28;20041;-43
2023/02/16 02:49:29;;;;;;;96.03;17.38;;;;;;;;;;5022130;28;20068;-44
2023/02/16 02:51:56;;;;;;;102.15;16.55;;;;;;;;;;5023687;28;20373;-39
2023/02/16 03:03:00;;;;;;;90.13;15.48;;;;;;;;;;5047450;28;20582;-40
2023/02/16 03:05:28;;;;;;;99.20;16.48;;;;;;;;;;5051083;28;20028;-41
2023/02/16 03:07:56;;;;;;;100.70;15.55;;;;;;;;;;5051167;28;20131;-38
2023/02/16 03:13:17;;;;;;;71.05;12.85;;;;;;;;;;5051516;28;20160;-43
2023/02/16 03:15:46;;;;;;;69.07;11.30;;;;;;;;;;5051204;28;20048;-41
2023/02/16 03:29:21;;;;;;;49.28;9.75;;;;;;;;;;5050808;28;20568;-39
2023/02/16 03:31:49;;;;;;;135.23;16.02;;;;;;;;;;5050888;28;20044;-39
2023/02/16 03:34:16;;;;;;;161.05;19.60;;;;;;;;;;5050957;28;20063;-41
2023/02/16 03:36:44;;;;;;;129.95;16.98;;;;;;;;;;5050972;28;20032;-41
2023/02/16 03:39:11;;;;;;;93.90;11.90;;;;;;;;;;5050706;28;20064;-41
2023/02/16 03:41:40;;;;;;;85.43;12.88;;;;;;;;;;5050900;28;20021;-40
2023/02/16 03:44:07;;;;;;;68.53;10.27;;;;;;;;;;5050887;28;20487;-40
2023/02/16 03:46:34;;;;;;;73.97;9.93;;;;;;;;;;5050670;28;20447;-40
2023/02/16 03:49:01;;;;;;;58.10;9.65;;;;;;;;;;5050768;28;20040;-39
2023/02/16 03:51:28;;;;;;;49.38;7.93;;;;;;;;;;5050604;28;20044;-40
2023/02/16 03:53:55;;;;;;;56.90;7.68;;;;;;;;;;5050701;28;20029;-40
2023/02/16 03:56:22;;;;;;;59.67;8.13;;;;;;;;;;5050681;28;20074;-40
2023/02/16 03:58:49;;;;;;;58.30;7.75;;;;;;;;;;5050578;28;20033;-39
2023/02/16 04:01:16;;;;;;;49.85;6.53;;;;;;;;;;5034827;28;20037;-38
2023/02/16 04:03:43;;;;;;;52.58;7.18;;;;;;;;;;5054830;28;20522;-39
2023/02/16 04:06:10;;;;;;;53.25;7.38;;;;;;;;;;5054552;28;20502;-39
2023/02/16 04:08:37;;;;;;;39.28;5.78;;;;;;;;;;5054549;28;20036;-40
2023/02/16 04:13:49;;;;;;;43.38;7.03;;;;;;;;;;5054599;28;20036;-40
2023/02/16 04:16:16;;;;;;;34.83;6.18;;;;;;;;;;5054523;28;20032;-41
2023/02/16 04:18:43;;;;;;;48.72;6.68;;;;;;;;;;5054428;28;20037;-39
2023/02/16 04:21:10;;;;;;;49.30;7.55;;;;;;;;;;5054353;28;20066;-37
2023/02/16 04:23:37;;;;;;;66.57;8.48;;;;;;;;;;5054426;28;20103;-39
2023/02/16 04:26:04;;;;;;;78.32;9.32;;;;;;;;;;5054392;28;20033;-38
2023/02/16 04:28:31;;;;;;;46.38;7.32;;;;;;;;;;5054221;28;20037;-40
2023/02/16 04:30:58;;;;;;;62.75;7.82;;;;;;;;;;5054066;28;20048;-40
2023/02/16 04:33:25;;;;;;;65.20;7.60;;;;;;;;;;5054239;28;20039;-38
2023/02/16 04:35:52;;;;;;;53.60;6.88;;;;;;;;;;5054168;28;20025;-40
2023/02/16 04:38:19;;;;;;;54.05;8.00;;;;;;;;;;5053916;28;20056;-40
2023/02/16 04:40:46;;;;;;;47.90;6.80;;;;;;;;;;5054062;28;20036;-41
2023/02/16 04:43:13;;;;;;;48.78;7.28;;;;;;;;;;5053973;28;20064;-39
2023/02/16 04:45:40;;;;;;;46.22;6.78;;;;;;;;;;5053969;28;20029;-37
2023/02/16 04:48:07;;;;;;;44.22;6.55;;;;;;;;;;5053916;28;20032;-39
2023/02/16 04:50:34;;;;;;;33.22;5.50;;;;;;;;;;5053910;28;20032;-37
2023/02/16 04:53:01;;;;;;;43.50;6.78;;;;;;;;;;5053893;28;20479;-35
2023/02/16 04:55:28;;;;;;;36.90;6.30;;;;;;;;;;5053729;28;20066;-39
2023/02/16 04:57:55;;;;;;;48.30;5.95;;;;;;;;;;5053598;28;20410;-39
2023/02/16 05:00:22;;;;;;;44.50;5.40;;;;;;;;;;5053674;28;20447;-38
2023/02/16 05:02:49;;;;;;;46.03;6.10;;;;;;;;;;5053697;28;20501;-40
2023/02/16 05:05:16;;;;;;;40.38;5.30;;;;;;;;;;5053642;28;20033;-41
2023/02/16 05:07:43;;;;;;;41.70;4.90;;;;;;;;;;5053389;28;20124;-42
2023/02/16 05:10:10;;;;;;;40.20;5.15;;;;;;;;;;5053563;28;20037;-40
2023/02/16 05:15:22;;;;;;;38.25;5.13;;;;;;;;;;5053411;28;20036;-41
2023/02/16 05:17:49;;;;;;;39.33;5.78;;;;;;;;;;5053230;28;20032;-38
2023/02/16 05:20:16;;;;;;;38.83;4.50;;;;;;;;;;5053344;28;20372;-40
2023/02/16 05:22:45;;;;;;;43.08;5.40;;;;;;;;;;5053192;28;20079;-41
2023/02/16 05:25:12;;;;;;;106.47;9.73;;;;;;;;;;5052945;28;20033;-39
2023/02/16 05:27:39;;;;;;;78.80;9.52;;;;;;;;;;5052982;28;20395;-41
2023/02/16 05:30:06;;;;;;;92.63;10.68;;;;;;;;;;5052991;28;20041;-40
2023/02/16 05:32:33;;;;;;;71.88;10.15;;;;;;;;;;5053092;28;20029;-38
2023/02/16 05:35:00;;;;;;;106.82;13.68;;;;;;;;;;5053092;28;20511;-38
2023/02/16 05:37:27;;;;;;;69.65;9.55;;;;;;;;;;5052793;28;20479;-38
2023/02/16 05:39:54;;;;;;;66.13;8.23;;;;;;;;;;5052940;28;20459;-42
2023/02/16 05:42:21;;;;;;;56.65;7.43;;;;;;;;;;5052849;28;20029;-41
2023/02/16 05:44:48;;;;;;;46.90;6.03;;;;;;;;;;5052827;28;20184;-42
2023/02/16 05:47:15;;;;;;;46.85;5.82;;;;;;;;;;5052816;28;20029;-39
2023/02/16 05:49:42;;;;;;;31.40;5.00;;;;;;;;;;5052769;28;20032;-43
2023/02/16 05:52:09;;;;;;;35.40;4.15;;;;;;;;;;5052745;28;20040;-41
2023/02/16 05:54:36;;;;;;;30.77;3.30;;;;;;;;;;5052693;28;20108;-44
2023/02/16 05:57:03;;;;;;;20.67;3.50;;;;;;;;;;5052564;28;20074;-39
2023/02/16 05:59:30;;;;;;;24.08;2.92;;;;;;;;;;5052584;28;20032;-38
2023/02/16 06:01:57;;;;;;;20.65;2.67;;;;;;;;;;5051281;28;20545;-42
2023/02/16 06:04:24;;;;;;;18.73;2.63;;;;;;;;;;5052565;28;20023;-42
2023/02/16 06:06:51;;;;;;;21.60;2.70;;;;;;;;;;5052449;28;20035;-42
2023/02/16 06:09:18;;;;;;;13.50;2.05;;;;;;;;;;5034398;28;20059;-41
2023/02/16 06:11:45;;;;;;;15.57;2.08;;;;;;;;;;5052424;28;20071;-42
2023/02/16 06:14:18;;;;;;;16.35;2.35;;;;;;;;;;5052297;28;20100;-40
2023/02/16 06:16:46;;;;;;;9.18;1.90;;;;;;;;;;5034230;28;20074;-43
2023/02/16 06:19:13;;;;;;;13.90;1.73;;;;;;;;;;5052113;28;20033;-40
2023/02/16 06:21:40;;;;;;;8.40;1.60;;;;;;;;;;5052072;28;20025;-42
2023/02/16 06:24:08;;;;;;;10.30;1.20;;;;;;;;;;5052182;28;20033;-40
2023/02/16 06:26:35;;;;;;;11.30;1.10;;;;;;;;;;5051972;28;20053;-43
2023/02/16 06:29:02;;;;;;;6.68;0.90;;;;;;;;;;5051974;28;20096;-42
2023/02/16 06:31:29;;;;;;;6.35;1.00;;;;;;;;;;5051852;28;20052;-44
2023/02/16 06:33:56;;;;;;;9.32;0.90;;;;;;;;;;5033887;28;20033;-43
2023/02/16 06:36:24;;;;;;;5.95;0.80;;;;;;;;;;5051643;28;20029;-43
2023/02/16 06:38:51;;;;;;;3.45;0.73;;;;;;;;;;5051557;28;20069;-44
2023/02/16 06:41:30;;;;;;;5.65;0.70;;;;;;;;;;5051748;28;20025;-44
2023/02/16 06:43:58;;;;;;;11.82;1.33;;;;;;;;;;5051680;28;20061;-43
2023/02/16 06:46:25;;;;;;;22.08;1.65;;;;;;;;;;5051532;28;20075;-42
2023/02/16 06:48:52;;;;;;;24.95;2.03;;;;;;;;;;5051485;28;20459;-41
2023/02/16 06:51:19;;;;;;;48.22;3.92;;;;;;;;;;5051548;28;20020;-41
2023/02/16 06:53:48;;;;;;;54.03;3.60;;;;;;;;;;5051656;28;20025;-42
2023/02/16 06:56:15;;;;;;;48.25;4.00;;;;;;;;;;5051356;28;20025;-41
2023/02/16 06:58:42;;;;;;;48.83;3.42;;;;;;;;;;5051428;28;20124;-40
2023/02/16 07:01:09;;;;;;;32.70;2.72;;;;;;;;;;5051512;28;20067;-42
2023/02/16 07:03:35;;;;;;;34.83;3.05;;;;;;;;;;5051385;28;20025;-42
2023/02/16 07:06:02;;;;;;;33.92;2.50;;;;;;;;;;5051070;28;20086;-44
2023/02/16 07:08:29;;;;;;;24.67;2.92;;;;;;;;;;5051330;28;20037;-42
2023/02/16 07:10:56;;;;;;;26.50;2.28;;;;;;;;;;5051139;28;20035;-41
2023/02/16 07:13:23;;;;;;;25.27;2.63;;;;;;;;;;5051547;28;20442;-42
2023/02/16 07:15:50;;;;;;;25.70;2.78;;;;;;;;;;5051184;28;20032;-40
2023/02/16 07:18:17;;;;;;;32.33;2.65;;;;;;;;;;5051083;28;20033;-42
2023/02/16 07:20:44;;;;;;;22.00;2.78;;;;;;;;;;5051157;28;20029;-41
2023/02/16 07:23:11;;;;;;;22.15;2.80;;;;;;;;;;5051087;28;20029;-42
2023/02/16 07:25:38;;;;;;;32.08;2.63;;;;;;;;;;5051058;28;20037;-42
2023/02/16 07:28:05;;;;;;;31.13;3.20;;;;;;;;;;5050992;28;20098;-42
2023/02/16 07:30:32;;;;;;;20.88;2.10;;;;;;;;;;5050640;28;20044;-42
2023/02/16 07:32:59;;;;;;;30.05;2.95;;;;;;;;;;5051040;28;20402;-41
2023/02/16 07:35:26;;;;;;;51.90;2.90;;;;;;;;;;5050552;28;20021;-42
2023/02/16 07:37:53;;;;;;;27.13;2.90;;;;;;;;;;5050765;28;20021;-42
2023/02/16 07:40:21;;;;;;;34.67;2.83;;;;;;;;;;5182491;23;20064;-40
2023/02/16 07:42:48;;;;;;;27.50;2.75;;;;;;;;;;5031011;28;20072;-39
2023/02/16 07:45:15;;;;;;;35.30;2.88;;;;;;;;;;5031120;28;20120;-39
2023/02/16 07:47:42;;;;;;;29.58;2.88;;;;;;;;;;5030981;28;20536;-39
2023/02/16 07:50:09;;;;;;;33.67;2.67;;;;;;;;;;5030882;28;20025;-39
2023/02/16 07:52:36;;;;;;;19.35;1.92;;;;;;;;;;5030462;28;20025;-39
2023/02/16 07:55:03;;;;;;;26.65;2.72;;;;;;;;;;5030935;28;20024;-39
2023/02/16 07:57:30;;;;;;;20.98;2.67;;;;;;;;;;5031203;28;20037;-39
2023/02/16 07:59:57;;;;;;;20.13;2.30;;;;;;;;;;5030409;28;20431;-39
2023/02/16 08:02:26;;;;;;;8.88;1.40;;;;;;;;;;5030840;28;20030;-39
2023/02/16 08:04:53;;;;;;;11.02;1.88;;;;;;;;;;5030826;28;20108;-39
2023/02/16 08:07:20;;;;;;;15.20;2.05;;;;;;;;;;5030761;28;20044;-39
2023/02/16 08:09:47;;;;;;;11.13;1.80;;;;;;;;;;5030727;28;20074;-39
2023/02/16 08:12:14;;;;;;;14.63;1.55;;;;;;;;;;5030725;28;20025;-39
2023/02/16 08:14:41;;;;;;;18.67;1.75;;;;;;;;;;5029354;28;20036;-39
2023/02/16 08:17:09;;;;;;;10.55;1.27;;;;;;;;;;5024452;28;20583;-39
2023/02/16 08:19:36;;;;;;;11.40;1.58;;;;;;;;;;5010915;28;20038;-39
2023/02/16 08:22:03;;;;;;;13.02;1.60;;;;;;;;;;5013804;28;20341;-39
2023/02/16 08:24:30;;;;;;;13.07;1.90;;;;;;;;;;5018298;28;20033;-39
2023/02/16 08:26:58;;;;;;;20.75;2.10;;;;;;;;;;5010926;28;20030;-39
2023/02/16 08:29:26;;;;;;;16.65;2.10;;;;;;;;;;5010835;28;20144;-39
2023/02/16 08:31:55;;;;;;;10.40;1.73;;;;;;;;;;5010789;28;20026;-39
2023/02/16 08:34:23;;;;;;;17.70;2.40;;;;;;;;;;5010834;28;20400;-39
2023/02/16 08:36:55;;;;;;;10.18;1.73;;;;;;;;;;5010765;28;20018;-39
2023/02/16 08:39:24;;;;;;;11.50;1.95;;;;;;;;;;5010493;28;20365;-39
2023/02/16 08:41:52;;;;;;;15.35;1.83;;;;;;;;;;5010731;28;20121;-40
2023/02/16 08:44:20;;;;;;;12.05;1.25;;;;;;;;;;5010727;28;20018;-39
2023/02/16 08:46:48;;;;;;;14.52;1.95;;;;;;;;;;5010749;28;20018;-39
2023/02/16 08:49:16;;;;;;;26.33;2.67;;;;;;;;;;5013707;28;20375;-40
2023/02/16 08:51:49;;;;;;;13.52;1.75;;;;;;;;;;5014292;28;20091;-39
2023/02/16 08:54:32;;;;;;;9.07;1.63;;;;;;;;;;5014396;28;20042;-39
2023/02/16 08:57:01;;;;;;;;;;;;;;;;;;5014338;28;20498;-40
2023/02/16 08:59:35;;;;;;;11.35;1.88;;;;;;;;;;5013994;28;20393;-39
2023/02/16 09:02:08;;;;;;;16.23;1.90;;;;;;;;;;5014101;28;20029;-39
2023/02/16 09:04:41;;;;;;;18.80;2.17;;;;;;;;;;5014182;28;20026;-39
2023/02/16 09:07:14;;;;;;;14.38;2.22;;;;;;;;;;5014022;28;20471;-39
2023/02/16 09:09:47;;;;;;;12.32;2.28;;;;;;;;;;5014560;28;20041;-39
2023/02/16 09:12:20;;;;;;;17.10;2.10;;;;;;;;;;5013915;28;20053;-39
2023/02/16 09:14:53;;;;;;;11.27;1.75;;;;;;;;;;5013711;28;20026;-38
2023/02/16 09:17:25;;;;;;;11.77;1.77;;;;;;;;;;5013853;28;20018;-39
2023/02/16 09:19:58;;;;;;;11.57;2.15;;;;;;;;;;5013743;28;20037;-39
2023/02/16 09:22:32;;;;;;;12.93;2.08;;;;;;;;;;5013731;28;20053;-40
2023/02/16 09:25:06;;;;;;;14.20;2.05;;;;;;;;;;5013658;28;20018;-39
2023/02/16 09:27:39;;;;;;;30.98;3.38;;;;;;;;;;5013665;28;20018;-40
2023/02/16 09:30:12;;;;;;;16.38;3.05;;;;;;;;;;5013508;28;20076;-40
2023/02/16 09:32:45;;;;;;;15.55;2.88;;;;;;;;;;5028668;28;20104;-37
2023/02/16 09:35:17;;;;;;;26.65;2.80;;;;;;;;;;5013577;28;20030;-38
2023/02/16 09:37:50;;;;;;;24.45;2.85;;;;;;;;;;5013478;28;20022;-37
2023/02/16 09:40:24;;;;;;;51.17;4.78;;;;;;;;;;5012678;28;20511;-39
2023/02/16 09:43:09;;;;;;;46.22;4.35;;;;;;;;;;5013343;28;20109;-39
2023/02/16 09:45:44;;;;;;;124.20;10.20;;;;;;;;;;5013281;28;20681;-39
2023/02/16 09:48:29;;;;;;;79.93;7.65;;;;;;;;;;5010887;28;20038;-39
2023/02/16 09:51:04;;;;;;;88.45;7.97;;;;;;;;;;5013035;28;20092;-38
2023/02/16 09:53:40;;;;;;;117.20;11.15;;;;;;;;;;5013854;28;20389;-37
2023/02/16 09:56:15;;;;;;;160.80;13.20;;;;;;;;;;5013067;28;20018;-37
2023/02/16 09:58:48;;;;;;;279.00;20.00;;;;;;;;;;5012459;28;20034;-39
2023/02/16 10:01:30;;;;;;;309.95;24.67;;;;;;;;;;5012915;28;20476;-39
2023/02/16 10:04:18;;;;;;;277.02;22.40;;;;;;;;;;5012768;28;20108;-37
2023/02/16 10:07:09;;;;;;;324.33;26.13;;;;;;;;;;5012666;28;20038;-38
2023/02/16 10:09:42;;;;;;;428.15;35.28;;;;;;;;;;5012689;28;20022;-38
2023/02/16 10:12:19;;;;;;;427.23;34.58;;;;;;;;;;5012662;28;20435;-36
2023/02/16 10:14:51;;;;;;;390.70;30.35;;;;;;;;;;5012548;28;20026;-38
2023/02/16 10:17:28;;;;;;;254.57;21.23;;;;;;;;;;5012263;28;20022;-38
2023/02/16 10:20:08;;;;;;;216.13;20.83;;;;;;;;;;5012235;28;20038;-38
2023/02/16 10:22:47;;;;;;;262.88;22.77;;;;;;;;;;5012562;28;20365;-38
2023/02/16 10:25:30;;;;;;;220.40;19.23;;;;;;;;;;5006399;28;20027;-39
2023/02/16 10:28:10;;;;;;;259.63;19.92;;;;;;;;;;5003164;28;20034;-39
2023/02/16 10:30:46;;;;;;;207.98;18.67;;;;;;;;;;5002982;28;20120;-39
2023/02/16 10:33:27;;;;;;;178.40;17.65;;;;;;;;;;5000607;28;20018;-39
2023/02/16 10:36:05;;;;;;;214.82;20.63;;;;;;;;;;5003477;28;20425;-39
2023/02/16 10:38:54;;;;;;;224.38;19.65;;;;;;;;;;5000612;28;20915;-39
2023/02/16 10:41:42;;;;;;;190.15;17.85;;;;;;;;;;5004491;28;20050;-39
2023/02/16 10:44:15;;;;;;;145.32;15.32;;;;;;;;;;5011742;28;20117;-39
2023/02/16 10:46:51;;;;;;;149.65;15.02;;;;;;;;;;5008959;28;20030;-39
2023/02/16 10:49:25;;;;;;;138.50;15.27;;;;;;;;;;5011408;28;20033;-39
2023/02/16 10:52:01;;;;;;;118.18;14.05;;;;;;;;;;5010250;28;20500;-39
2023/02/16 10:54:35;;;;;;;138.63;14.52;;;;;;;;;;5000701;28;20038;-39
2023/02/16 10:57:10;;;;;;;109.35;12.30;;;;;;;;;;5006821;28;20041;-39
2023/02/16 10:59:47;;;;;;;118.15;12.88;;;;;;;;;;5001325;28;20496;-39
2023/02/16 11:02:26;;;;;;;101.18;12.48;;;;;;;;;;5002913;28;20415;-39
2023/02/16 11:05:02;;;;;;;107.95;11.52;;;;;;;;;;5002989;28;20030;-41
2023/02/16 11:07:36;;;;;;;130.35;13.35;;;;;;;;;;4999979;28;20158;-44
2023/02/16 11:10:22;;;;;;;105.28;12.13;;;;;;;;;;5000508;28;20028;-43
2023/02/16 11:12:59;;;;;;;89.03;11.23;;;;;;;;;;5001953;28;20116;-47
2023/02/16 11:15:32;;;;;;;91.57;11.00;;;;;;;;;;5005564;28;20434;-47
2023/02/16 11:18:10;;;;;;;83.75;10.43;;;;;;;;;;4997771;28;20620;-49
2023/02/16 11:20:49;;;;;;;75.22;10.70;;;;;;;;;;4999345;28;20448;-45
2023/02/16 11:23:22;;;;;;;78.88;9.80;;;;;;;;;;5002490;28;20112;-41
2023/02/16 11:26:02;;;;;;;71.22;9.45;;;;;;;;;;5011062;28;20085;-41
2023/02/16 11:28:46;;;;;;;77.88;8.57;;;;;;;;;;5010268;28;20029;-41
2023/02/16 11:31:36;;;;;;;75.10;9.50;;;;;;;;;;5011240;28;20046;-41
2023/02/16 11:34:35;;;;;;;86.28;9.93;;;;;;;;;;5011226;28;20049;-40
2023/02/16 11:37:11;;;;;;;74.68;8.15;;;;;;;;;;5011392;28;20022;-40
2023/02/16 11:39:50;;;;;;;74.60;7.90;;;;;;;;;;5010867;28;20073;-41
2023/02/16 11:42:30;;;;;;;67.10;9.13;;;;;;;;;;5011288;28;20030;-42
2023/02/16 11:45:04;;;;;;;63.63;8.05;;;;;;;;;;5011222;28;20519;-41
2023/02/16 11:47:43;;;;;;;76.65;8.13;;;;;;;;;;5011371;28;20125;-41
2023/02/16 11:50:31;;;;;;;61.70;7.47;;;;;;;;;;5011077;28;20038;-41
2023/02/16 11:53:08;;;;;;;63.47;7.55;;;;;;;;;;5011276;28;20542;-40
2023/02/16 11:55:42;;;;;;;107.80;11.35;;;;;;;;;;5011155;28;20112;-41
2023/02/16 11:58:20;;;;;;;63.83;7.65;;;;;;;;;;5011113;28;20044;-38
2023/02/16 12:01:08;;;;;;;73.95;8.65;;;;;;;;;;5011735;28;20044;-38
2023/02/16 12:03:58;;;;;;;61.97;6.60;;;;;;;;;;5011072;28;20088;-38
2023/02/16 12:06:47;;;;;;;70.72;9.60;;;;;;;;;;5011204;28;20046;-38
2023/02/16 12:09:37;;;;;;;61.92;8.18;;;;;;;;;;5011005;28;20034;-39
2023/02/16 12:12:13;;;;;;;64.03;6.90;;;;;;;;;;5010860;28;20049;-38
2023/02/16 12:14:56;;;;;;;44.25;5.80;;;;;;;;;;5011056;28;20038;-38
2023/02/16 12:17:41;;;;;;;55.92;7.00;;;;;;;;;;5011266;28;20419;-38
2023/02/16 12:20:18;;;;;;;59.50;6.93;;;;;;;;;;5010683;28;20042;-38
2023/02/16 12:22:50;;;;;;;69.57;9.23;;;;;;;;;;5013758;28;20116;-38
2023/02/16 12:25:32;;;;;;;45.03;6.00;;;;;;;;;;5013562;28;20062;-38
2023/02/16 12:28:01;;;;;;;;;;;;;;;;;;5015207;28;20037;-38
2023/02/16 12:30:43;;;;;;;49.30;5.95;;;;;;;;;;5014623;28;19913;-38
2023/02/16 12:33:30;;;;;;;58.75;6.55;;;;;;;;;;5014689;28;20037;-38
2023/02/16 12:36:15;;;;;;;57.15;7.38;;;;;;;;;;5014569;28;20087;-42
2023/02/16 12:39:16;;;;;;;42.95;6.32;;;;;;;;;;5013264;28;20050;-38
2023/02/16 12:41:52;;;;;;;59.40;7.20;;;;;;;;;;5009745;28;20081;-38
2023/02/16 12:44:36;;;;;;;59.25;6.35;;;;;;;;;;5014461;28;20549;-38
2023/02/16 12:47:11;;;;;;;53.33;7.18;;;;;;;;;;5014435;28;20099;-38
2023/02/16 12:49:54;;;;;;;46.53;6.03;;;;;;;;;;5014319;28;20124;-38
2023/02/16 12:52:45;;;;;;;41.00;5.22;;;;;;;;;;5014433;28;20033;-38
2023/02/16 12:55:28;;;;;;;49.53;6.93;;;;;;;;;;5013914;28;20112;-38
2023/02/16 12:57:56;;;;;;;;;;;;;;;;;;5014550;28;20041;-39
2023/02/16 13:00:39;;;;;;;70.90;8.05;;;;;;;;;;5015359;28;20012;-39
2023/02/16 13:03:37;;;;;;;55.42;6.00;;;;;;;;;;5014044;28;20752;-39
2023/02/16 13:06:25;;;;;;;48.00;6.75;;;;;;;;;;5013013;28;20137;-39
2023/02/16 13:08:58;;;;;;;55.92;6.57;;;;;;;;;;5013897;28;20151;-39
2023/02/16 13:11:53;;;;;;;59.85;6.72;;;;;;;;;;5013934;28;20395;-39
2023/02/16 13:14:30;;;;;;;56.78;6.38;;;;;;;;;;5011153;28;20373;-39
2023/02/16 13:17:13;;;;;;;42.05;6.20;;;;;;;;;;5013766;28;20041;-38
2023/02/16 13:19:47;;;;;;;37.97;4.95;;;;;;;;;;5013675;28;20042;-38
2023/02/16 13:22:26;;;;;;;74.03;7.82;;;;;;;;;;5013520;28;20555;-39
2023/02/16 13:24:59;;;;;;;67.32;7.07;;;;;;;;;;5013654;28;20113;-39
2023/02/16 13:27:46;;;;;;;55.80;6.55;;;;;;;;;;5013683;28;20121;-39
2023/02/16 13:30:19;;;;;;;57.13;6.32;;;;;;;;;;5012909;28;20040;-39
2023/02/16 13:32:53;;;;;;;50.47;6.30;;;;;;;;;;5011706;28;20040;-39
2023/02/16 13:35:24;;;;;;;54.00;6.10;;;;;;;;;;5011372;28;20096;-39
2023/02/16 13:38:01;;;;;;;48.95;6.28;;;;;;;;;;5009450;28;20033;-39
2023/02/16 13:40:36;;;;;;;38.28;5.03;;;;;;;;;;5011238;28;20130;-39
2023/02/16 13:43:18;;;;;;;31.42;4.35;;;;;;;;;;5012694;28;20072;-39
2023/02/16 13:45:53;;;;;;;38.90;4.72;;;;;;;;;;5011224;28;20038;-39
2023/02/16 13:48:30;;;;;;;38.45;4.55;;;;;;;;;;5010307;28;20030;-39
2023/02/16 13:51:07;;;;;;;39.03;4.93;;;;;;;;;;5009642;28;20044;-39
2023/02/16 13:53:44;;;;;;;30.35;4.65;;;;;;;;;;5011406;28;20511;-39
2023/02/16 13:56:34;;;;;;;37.08;4.03;;;;;;;;;;5008291;28;20037;-39
2023/02/16 13:59:21;;;;;;;41.15;4.38;;;;;;;;;;5010666;28;20121;-39
2023/02/16 14:01:48;;;;;;;37.65;4.65;;;;;;;;;;5013750;28;20029;-39
2023/02/16 14:04:24;;;;;;;31.13;4.57;;;;;;;;;;5011672;28;20475;-39
2023/02/16 14:06:57;;;;;;;31.50;3.65;;;;;;;;;;5011236;28;20103;-39
2023/02/16 14:09:38;;;;;;;29.55;4.03;;;;;;;;;;5011209;28;20072;-39
2023/02/16 14:12:34;;;;;;;32.22;3.70;;;;;;;;;;5011308;28;20061;-39
2023/02/16 14:15:06;;;;;;;23.95;3.97;;;;;;;;;;5010658;28;20064;-42
2023/02/16 14:17:35;;;;;;;27.40;3.28;;;;;;;;;;5009339;28;20297;-37
2023/02/16 14:20:03;;;;;;;28.17;3.83;;;;;;;;;;5011060;28;20049;-38
2023/02/16 14:22:38;;;;;;;30.70;3.92;;;;;;;;;;5009019;28;20057;-37
2023/02/16 14:25:22;;;;;;;32.45;3.47;;;;;;;;;;5007445;28;20764;-38
2023/02/16 14:27:51;;;;;;;28.38;3.88;;;;;;;;;;5011091;28;20245;-37
2023/02/16 14:30:21;;;;;;;23.33;3.92;;;;;;;;;;5010963;28;20057;-38
2023/02/16 14:33:17;;;;;;;24.25;3.22;;;;;;;;;;5010965;28;20392;-37
2023/02/16 14:35:59;;;;;;;31.55;3.53;;;;;;;;;;5001699;28;20470;-38
2023/02/16 14:38:29;;;;;;;32.47;2.65;;;;;;;;;;5009092;28;20511;-38
2023/02/16 14:40:57;;;;;;;28.80;3.88;;;;;;;;;;5011840;28;20042;-38
2023/02/16 14:43:33;;;;;;;30.83;3.60;;;;;;;;;;5012121;28;20060;-38
2023/02/16 14:46:13;;;;;;;39.97;3.97;;;;;;;;;;5011187;28;20092;-38
2023/02/16 14:48:59;;;;;;;29.00;4.22;;;;;;;;;;5011978;28;20034;-38
2023/02/16 14:51:35;;;;;;;42.15;3.97;;;;;;;;;;5011864;28;20034;-38
2023/02/16 14:54:20;;;;;;;26.38;4.13;;;;;;;;;;5012039;28;20041;-38
2023/02/16 14:57:10;;;;;;;24.05;3.53;;;;;;;;;;5007902;28;20045;-38
2023/02/16 14:59:42;;;;;;;24.17;3.05;;;;;;;;;;4989595;28;20058;-38
2023/02/16 15:02:29;;;;;;;26.90;3.75;;;;;;;;;;5001243;28;20030;-38
2023/02/16 15:04:57;;;;;;;39.08;4.05;;;;;;;;;;5002398;28;20396;-38
2023/02/16 15:07:26;;;;;;;31.42;4.13;;;;;;;;;;5001692;28;20034;-38
2023/02/16 15:09:57;;;;;;;16.98;2.88;;;;;;;;;;5001993;28;20041;-38
2023/02/16 15:12:29;;;;;;;25.52;3.28;;;;;;;;;;5002282;28;20513;-38
2023/02/16 15:14:56;;;;;;;27.48;3.42;;;;;;;;;;5000812;28;20030;-37
2023/02/16 15:17:32;;;;;;;20.42;2.80;;;;;;;;;;5000577;28;20037;-38
2023/02/16 15:20:20;;;;;;;31.52;4.07;;;;;;;;;;5002208;28;20081;-37
2023/02/16 15:22:55;;;;;;;31.75;3.25;;;;;;;;;;5011211;28;20121;-37
2023/02/16 15:25:25;;;;;;;25.88;3.35;;;;;;;;;;5008701;28;20113;-38
2023/02/16 15:27:53;;;;;;;31.30;4.20;;;;;;;;;;4996450;28;20401;-38
2023/02/16 15:30:24;;;;;;;29.90;3.83;;;;;;;;;;4991779;28;20477;-38
2023/02/16 15:32:59;;;;;;;32.93;3.37;;;;;;;;;;4991815;28;20030;-40
2023/02/16 15:35:28;;;;;;;31.50;4.07;;;;;;;;;;4995399;28;20519;-40